| State | Nebraska | Latest | Unknown (85 cfs) | |
| River | Platte River | Rating | Observed | Estimated |
| Updated | 2026-05-10 11:15 (45 minutes ago) | Flood - The river is flooding. Obstacles can be treacherous or deadly. The river should be avoided at this stage for casual trips and definitely for the inexperienced. Trips should be attempted only with protective gear and equipment.Flood | (none) | (none) |
| Discharge | 85 cfs (median: 1200 cfs) | High - The river is high and potentially dangerous, especially for the young and / or inexperienced. Normal stream obstacles are sometimes difficult to navigate. Extended distances can be attempted, but canoe travel may not be advisable.High | (none) | (none) |
| Height | 3.24 feet | Good - Conditions are ideal for a canoe or kayak. Boats typically will drag on fewer than one-quarter of riffles, if at all, and portages are unnecessary or rare. Normal float lengths can be attempted without a problem.Good | (none) | (none) |
| Trend | Falling (falling over 24 hours) | Low - River is low but can still be floated. Some riffles are okay but most come with significant dragging and might need a portage. Float lengths should be reduced to accommodate low flow, dragging, and portages.Low | (none) | (none) |
| USGS | USGS Site ( Duck Duck Go Maps) | Poor - River is too low to float comfortably. Most or all riffles will drag or must be portaged and some obstacles (such as slick shelf rock) cause undue problems. Avoid the river at this stage for casual paddling trips.Poor | (none) | (none) |
| Date | Start | End | Distance | Condition | Discharge | Height | Fishing | Details |
|---|
A total of 0 rows are displayed.
BLG - Bluegill
CCF - Channel Catfish
CP - Chain Pickerel
FWD - Freshwater Drum
GSF - Green Sunfish
KSB - Kentucky Spotted Bass
LMB - Largemouth Bass
LSF - Longear Sunfish
RB - Rock Bass / Goggle Eye
RSF - Redear Sunfish
RT - Rainbow Trout
SMB - Smallmouth Bass
WB - White Bass
WF - Whitefish
WL - WalleyeThe classic River Trips application is still available for use. It is updated with the new system using a data retrofit. It is no longer maintained. The original River Trips application is no longer updated (as of 1 Dec 2016) but can be checked for errors or for the condition of the data before it was converted to the new system.
| Observation | Height | Discharge | Maximum Discharge | Minimum Discharge | Mean Discharge | P05 | P10 | P20 | P25 | P50 (Median) | P75 | P80 | P90 | P95 |
|---|---|---|---|---|---|---|---|---|---|---|---|---|---|---|
| 2026-05-10 11:15 | 3.24 | 85 | 13700 (1942) | 7 (1955) | 2060 | 225 | 342 | 596 | 737 | 1200 | 2490 | 2800 | 5600 | 7260 |
| 2026-05-10 10:15 | 3.25 | 91 | 13700 (1942) | 7 (1955) | 2060 | 225 | 342 | 596 | 737 | 1200 | 2490 | 2800 | 5600 | 7260 |
| 2026-05-10 09:15 | 3.24 | 85 | 13700 (1942) | 7 (1955) | 2060 | 225 | 342 | 596 | 737 | 1200 | 2490 | 2800 | 5600 | 7260 |
| 2026-05-10 08:15 | 3.24 | 85 | 13700 (1942) | 7 (1955) | 2060 | 225 | 342 | 596 | 737 | 1200 | 2490 | 2800 | 5600 | 7260 |
| 2026-05-10 07:15 | 3.22 | 75 | 13700 (1942) | 7 (1955) | 2060 | 225 | 342 | 596 | 737 | 1200 | 2490 | 2800 | 5600 | 7260 |
| 2026-05-10 06:15 | 3.22 | 75 | 13700 (1942) | 7 (1955) | 2060 | 225 | 342 | 596 | 737 | 1200 | 2490 | 2800 | 5600 | 7260 |
| 2026-05-10 05:15 | 3.24 | 85 | 13700 (1942) | 7 (1955) | 2060 | 225 | 342 | 596 | 737 | 1200 | 2490 | 2800 | 5600 | 7260 |
| 2026-05-10 04:15 | 3.23 | 80 | 13700 (1942) | 7 (1955) | 2060 | 225 | 342 | 596 | 737 | 1200 | 2490 | 2800 | 5600 | 7260 |
| 2026-05-10 03:15 | 3.23 | 80 | 13700 (1942) | 7 (1955) | 2060 | 225 | 342 | 596 | 737 | 1200 | 2490 | 2800 | 5600 | 7260 |
| 2026-05-10 02:15 | 3.24 | 85 | 13700 (1942) | 7 (1955) | 2060 | 225 | 342 | 596 | 737 | 1200 | 2490 | 2800 | 5600 | 7260 |
| 2026-05-10 01:15 | 3.24 | 85 | 13700 (1942) | 7 (1955) | 2060 | 225 | 342 | 596 | 737 | 1200 | 2490 | 2800 | 5600 | 7260 |
| 2026-05-10 00:15 | 3.23 | 80 | 13700 (1942) | 7 (1955) | 2060 | 225 | 342 | 596 | 737 | 1200 | 2490 | 2800 | 5600 | 7260 |
| 2026-05-09 23:15 | 3.23 | 80 | 13700 (1942) | 7 (1955) | 2060 | 225 | 342 | 596 | 737 | 1200 | 2490 | 2800 | 5600 | 7260 |
| 2026-05-09 22:15 | 3.23 | 80 | 13100 (1984) | 15 (1955) | 2030 | 174 | 305 | 576 | 696 | 1310 | 2370 | 2870 | 4580 | 6720 |
| 2026-05-09 21:15 | 3.23 | 80 | 13100 (1984) | 15 (1955) | 2030 | 174 | 305 | 576 | 696 | 1310 | 2370 | 2870 | 4580 | 6720 |
| 2026-05-09 20:15 | 3.23 | 80 | 13100 (1984) | 15 (1955) | 2030 | 174 | 305 | 576 | 696 | 1310 | 2370 | 2870 | 4580 | 6720 |
| 2026-05-09 19:15 | 3.24 | 85 | 13100 (1984) | 15 (1955) | 2030 | 174 | 305 | 576 | 696 | 1310 | 2370 | 2870 | 4580 | 6720 |
| 2026-05-09 18:15 | 3.24 | 85 | 13100 (1984) | 15 (1955) | 2030 | 174 | 305 | 576 | 696 | 1310 | 2370 | 2870 | 4580 | 6720 |
| 2026-05-09 17:15 | 3.23 | 80 | 13100 (1984) | 15 (1955) | 2030 | 174 | 305 | 576 | 696 | 1310 | 2370 | 2870 | 4580 | 6720 |
| 2026-05-09 16:15 | 3.24 | 85 | 13100 (1984) | 15 (1955) | 2030 | 174 | 305 | 576 | 696 | 1310 | 2370 | 2870 | 4580 | 6720 |
| 2026-05-09 15:15 | 3.24 | 85 | 13100 (1984) | 15 (1955) | 2030 | 174 | 305 | 576 | 696 | 1310 | 2370 | 2870 | 4580 | 6720 |
| 2026-05-09 14:15 | 3.24 | 85 | 13100 (1984) | 15 (1955) | 2030 | 174 | 305 | 576 | 696 | 1310 | 2370 | 2870 | 4580 | 6720 |
| 2026-05-09 13:15 | 3.24 | 85 | 13100 (1984) | 15 (1955) | 2030 | 174 | 305 | 576 | 696 | 1310 | 2370 | 2870 | 4580 | 6720 |
| 2026-05-09 12:15 | 3.25 | 91 | 13100 (1984) | 15 (1955) | 2030 | 174 | 305 | 576 | 696 | 1310 | 2370 | 2870 | 4580 | 6720 |
| 2026-05-09 11:15 | 3.25 | 91 | 13100 (1984) | 15 (1955) | 2030 | 174 | 305 | 576 | 696 | 1310 | 2370 | 2870 | 4580 | 6720 |
| 2026-05-09 10:15 | 3.25 | 91 | 13100 (1984) | 15 (1955) | 2030 | 174 | 305 | 576 | 696 | 1310 | 2370 | 2870 | 4580 | 6720 |
| 2026-05-09 09:15 | 3.24 | 85 | 13100 (1984) | 15 (1955) | 2030 | 174 | 305 | 576 | 696 | 1310 | 2370 | 2870 | 4580 | 6720 |
| 2026-05-09 08:15 | 3.24 | 85 | 13100 (1984) | 15 (1955) | 2030 | 174 | 305 | 576 | 696 | 1310 | 2370 | 2870 | 4580 | 6720 |
| 2026-05-09 07:15 | 3.23 | 80 | 13100 (1984) | 15 (1955) | 2030 | 174 | 305 | 576 | 696 | 1310 | 2370 | 2870 | 4580 | 6720 |
| 2026-05-09 06:15 | 3.22 | 75 | 13100 (1984) | 15 (1955) | 2030 | 174 | 305 | 576 | 696 | 1310 | 2370 | 2870 | 4580 | 6720 |
| 2026-05-09 05:15 | 3.23 | 80 | 13100 (1984) | 15 (1955) | 2030 | 174 | 305 | 576 | 696 | 1310 | 2370 | 2870 | 4580 | 6720 |
| 2026-05-09 04:15 | 3.23 | 80 | 13100 (1984) | 15 (1955) | 2030 | 174 | 305 | 576 | 696 | 1310 | 2370 | 2870 | 4580 | 6720 |
| 2026-05-09 03:15 | 3.23 | 80 | 13100 (1984) | 15 (1955) | 2030 | 174 | 305 | 576 | 696 | 1310 | 2370 | 2870 | 4580 | 6720 |
| 2026-05-09 02:15 | 3.23 | 80 | 13100 (1984) | 15 (1955) | 2030 | 174 | 305 | 576 | 696 | 1310 | 2370 | 2870 | 4580 | 6720 |
| 2026-05-09 01:15 | 3.23 | 80 | 13100 (1984) | 15 (1955) | 2030 | 174 | 305 | 576 | 696 | 1310 | 2370 | 2870 | 4580 | 6720 |
| 2026-05-09 00:15 | 3.24 | 85 | 13100 (1984) | 15 (1955) | 2030 | 174 | 305 | 576 | 696 | 1310 | 2370 | 2870 | 4580 | 6720 |
| 2026-05-08 23:15 | 3.24 | 85 | 13100 (1984) | 15 (1955) | 2030 | 174 | 305 | 576 | 696 | 1310 | 2370 | 2870 | 4580 | 6720 |
| 2026-05-08 22:15 | 3.24 | 85 | 13800 (1984) | 18 (1955) | 2050 | 171 | 324 | 578 | 766 | 1390 | 2600 | 2930 | 4180 | 6360 |
| 2026-05-08 21:15 | 3.24 | 85 | 13800 (1984) | 18 (1955) | 2050 | 171 | 324 | 578 | 766 | 1390 | 2600 | 2930 | 4180 | 6360 |
| 2026-05-08 20:15 | 3.24 | 85 | 13800 (1984) | 18 (1955) | 2050 | 171 | 324 | 578 | 766 | 1390 | 2600 | 2930 | 4180 | 6360 |
| 2026-05-08 19:15 | 3.24 | 85 | 13800 (1984) | 18 (1955) | 2050 | 171 | 324 | 578 | 766 | 1390 | 2600 | 2930 | 4180 | 6360 |
| 2026-05-08 18:15 | 3.23 | 80 | 13800 (1984) | 18 (1955) | 2050 | 171 | 324 | 578 | 766 | 1390 | 2600 | 2930 | 4180 | 6360 |
| 2026-05-08 17:15 | 3.24 | 85 | 13800 (1984) | 18 (1955) | 2050 | 171 | 324 | 578 | 766 | 1390 | 2600 | 2930 | 4180 | 6360 |
| 2026-05-08 16:15 | 3.24 | 85 | 13800 (1984) | 18 (1955) | 2050 | 171 | 324 | 578 | 766 | 1390 | 2600 | 2930 | 4180 | 6360 |
| 2026-05-08 15:15 | 3.25 | 91 | 13800 (1984) | 18 (1955) | 2050 | 171 | 324 | 578 | 766 | 1390 | 2600 | 2930 | 4180 | 6360 |
| 2026-05-08 14:15 | 3.26 | 97 | 13800 (1984) | 18 (1955) | 2050 | 171 | 324 | 578 | 766 | 1390 | 2600 | 2930 | 4180 | 6360 |
| 2026-05-08 13:15 | 3.26 | 97 | 13800 (1984) | 18 (1955) | 2050 | 171 | 324 | 578 | 766 | 1390 | 2600 | 2930 | 4180 | 6360 |
| 2026-05-08 12:15 | 3.26 | 97 | 13800 (1984) | 18 (1955) | 2050 | 171 | 324 | 578 | 766 | 1390 | 2600 | 2930 | 4180 | 6360 |
| 2026-05-08 11:15 | 3.26 | 97 | 13800 (1984) | 18 (1955) | 2050 | 171 | 324 | 578 | 766 | 1390 | 2600 | 2930 | 4180 | 6360 |
| 2026-05-08 10:15 | 3.26 | 97 | 13800 (1984) | 18 (1955) | 2050 | 171 | 324 | 578 | 766 | 1390 | 2600 | 2930 | 4180 | 6360 |
| 2026-05-08 09:15 | 3.25 | 91 | 13800 (1984) | 18 (1955) | 2050 | 171 | 324 | 578 | 766 | 1390 | 2600 | 2930 | 4180 | 6360 |
| 2026-05-08 08:15 | 3.24 | 85 | 13800 (1984) | 18 (1955) | 2050 | 171 | 324 | 578 | 766 | 1390 | 2600 | 2930 | 4180 | 6360 |
| 2026-05-08 07:15 | 3.24 | 85 | 13800 (1984) | 18 (1955) | 2050 | 171 | 324 | 578 | 766 | 1390 | 2600 | 2930 | 4180 | 6360 |
| 2026-05-08 06:15 | 3.25 | 91 | 13800 (1984) | 18 (1955) | 2050 | 171 | 324 | 578 | 766 | 1390 | 2600 | 2930 | 4180 | 6360 |
| 2026-05-08 05:15 | 3.25 | 91 | 13800 (1984) | 18 (1955) | 2050 | 171 | 324 | 578 | 766 | 1390 | 2600 | 2930 | 4180 | 6360 |
| 2026-05-08 04:15 | 3.25 | 91 | 13800 (1984) | 18 (1955) | 2050 | 171 | 324 | 578 | 766 | 1390 | 2600 | 2930 | 4180 | 6360 |
| 2026-05-08 03:15 | 3.24 | 85 | 13800 (1984) | 18 (1955) | 2050 | 171 | 324 | 578 | 766 | 1390 | 2600 | 2930 | 4180 | 6360 |
| 2026-05-08 02:15 | 3.24 | 85 | 13800 (1984) | 18 (1955) | 2050 | 171 | 324 | 578 | 766 | 1390 | 2600 | 2930 | 4180 | 6360 |
| 2026-05-08 01:15 | 3.25 | 91 | 13800 (1984) | 18 (1955) | 2050 | 171 | 324 | 578 | 766 | 1390 | 2600 | 2930 | 4180 | 6360 |
| 2026-05-08 00:15 | 3.25 | 91 | 13800 (1984) | 18 (1955) | 2050 | 171 | 324 | 578 | 766 | 1390 | 2600 | 2930 | 4180 | 6360 |
| 2026-05-07 23:15 | 3.25 | 91 | 13800 (1984) | 18 (1955) | 2050 | 171 | 324 | 578 | 766 | 1390 | 2600 | 2930 | 4180 | 6360 |
| 2026-05-07 22:15 | 3.25 | 91 | 14000 (1984) | 33 (1955) | 2060 | 187 | 387 | 644 | 831 | 1340 | 2550 | 2990 | 4170 | 5890 |
| 2026-05-07 21:15 | 3.25 | 91 | 14000 (1984) | 33 (1955) | 2060 | 187 | 387 | 644 | 831 | 1340 | 2550 | 2990 | 4170 | 5890 |
| 2026-05-07 20:15 | 3.24 | 85 | 14000 (1984) | 33 (1955) | 2060 | 187 | 387 | 644 | 831 | 1340 | 2550 | 2990 | 4170 | 5890 |
| 2026-05-07 19:15 | 3.25 | 91 | 14000 (1984) | 33 (1955) | 2060 | 187 | 387 | 644 | 831 | 1340 | 2550 | 2990 | 4170 | 5890 |
| 2026-05-07 18:15 | 3.25 | 91 | 14000 (1984) | 33 (1955) | 2060 | 187 | 387 | 644 | 831 | 1340 | 2550 | 2990 | 4170 | 5890 |
| 2026-05-07 17:15 | 3.26 | 97 | 14000 (1984) | 33 (1955) | 2060 | 187 | 387 | 644 | 831 | 1340 | 2550 | 2990 | 4170 | 5890 |
| 2026-05-07 16:15 | 3.26 | 97 | 14000 (1984) | 33 (1955) | 2060 | 187 | 387 | 644 | 831 | 1340 | 2550 | 2990 | 4170 | 5890 |
| 2026-05-07 15:15 | 3.27 | 102 | 14000 (1984) | 33 (1955) | 2060 | 187 | 387 | 644 | 831 | 1340 | 2550 | 2990 | 4170 | 5890 |
| 2026-05-07 14:15 | 3.27 | 102 | 14000 (1984) | 33 (1955) | 2060 | 187 | 387 | 644 | 831 | 1340 | 2550 | 2990 | 4170 | 5890 |
| 2026-05-07 13:15 | 3.27 | 102 | 14000 (1984) | 33 (1955) | 2060 | 187 | 387 | 644 | 831 | 1340 | 2550 | 2990 | 4170 | 5890 |
| 2026-05-07 12:15 | 3.27 | 102 | 14000 (1984) | 33 (1955) | 2060 | 187 | 387 | 644 | 831 | 1340 | 2550 | 2990 | 4170 | 5890 |
| 2026-05-07 11:15 | 3.26 | 97 | 14000 (1984) | 33 (1955) | 2060 | 187 | 387 | 644 | 831 | 1340 | 2550 | 2990 | 4170 | 5890 |
| 2026-05-07 10:15 | 3.26 | 97 | 14000 (1984) | 33 (1955) | 2060 | 187 | 387 | 644 | 831 | 1340 | 2550 | 2990 | 4170 | 5890 |
| 2026-05-07 09:15 | 3.25 | 91 | 14000 (1984) | 33 (1955) | 2060 | 187 | 387 | 644 | 831 | 1340 | 2550 | 2990 | 4170 | 5890 |
| 2026-05-07 08:15 | 3.25 | 91 | 14000 (1984) | 33 (1955) | 2060 | 187 | 387 | 644 | 831 | 1340 | 2550 | 2990 | 4170 | 5890 |
| 2026-05-07 07:15 | 3.25 | 91 | 14000 (1984) | 33 (1955) | 2060 | 187 | 387 | 644 | 831 | 1340 | 2550 | 2990 | 4170 | 5890 |
| 2026-05-07 06:15 | 3.25 | 91 | 14000 (1984) | 33 (1955) | 2060 | 187 | 387 | 644 | 831 | 1340 | 2550 | 2990 | 4170 | 5890 |
| 2026-05-07 05:15 | 3.22 | 75 | 14000 (1984) | 33 (1955) | 2060 | 187 | 387 | 644 | 831 | 1340 | 2550 | 2990 | 4170 | 5890 |
| 2026-05-07 04:15 | 3.22 | 75 | 14000 (1984) | 33 (1955) | 2060 | 187 | 387 | 644 | 831 | 1340 | 2550 | 2990 | 4170 | 5890 |
| 2026-05-07 03:15 | 3.22 | 75 | 14000 (1984) | 33 (1955) | 2060 | 187 | 387 | 644 | 831 | 1340 | 2550 | 2990 | 4170 | 5890 |
| 2026-05-07 02:15 | 3.23 | 80 | 14000 (1984) | 33 (1955) | 2060 | 187 | 387 | 644 | 831 | 1340 | 2550 | 2990 | 4170 | 5890 |
| 2026-05-07 01:15 | 3.23 | 80 | 14000 (1984) | 33 (1955) | 2060 | 187 | 387 | 644 | 831 | 1340 | 2550 | 2990 | 4170 | 5890 |
| 2026-05-07 00:15 | 3.23 | 80 | 14000 (1984) | 33 (1955) | 2060 | 187 | 387 | 644 | 831 | 1340 | 2550 | 2990 | 4170 | 5890 |
| 2026-05-06 23:15 | 3.23 | 80 | 14000 (1984) | 33 (1955) | 2060 | 187 | 387 | 644 | 831 | 1340 | 2550 | 2990 | 4170 | 5890 |
| 2026-05-06 22:15 | 3.23 | 80 | 13300 (1984) | 59 (1955) | 2080 | 207 | 449 | 678 | 929 | 1380 | 2560 | 2670 | 4410 | 5980 |
| 2026-05-06 21:15 | 3.24 | 85 | 13300 (1984) | 59 (1955) | 2080 | 207 | 449 | 678 | 929 | 1380 | 2560 | 2670 | 4410 | 5980 |
| 2026-05-06 20:15 | 3.23 | 80 | 13300 (1984) | 59 (1955) | 2080 | 207 | 449 | 678 | 929 | 1380 | 2560 | 2670 | 4410 | 5980 |
| 2026-05-06 19:15 | 3.24 | 85 | 13300 (1984) | 59 (1955) | 2080 | 207 | 449 | 678 | 929 | 1380 | 2560 | 2670 | 4410 | 5980 |
| 2026-05-06 18:15 | 3.24 | 85 | 13300 (1984) | 59 (1955) | 2080 | 207 | 449 | 678 | 929 | 1380 | 2560 | 2670 | 4410 | 5980 |
| 2026-05-06 17:15 | 3.24 | 85 | 13300 (1984) | 59 (1955) | 2080 | 207 | 449 | 678 | 929 | 1380 | 2560 | 2670 | 4410 | 5980 |
| 2026-05-06 16:15 | 3.24 | 85 | 13300 (1984) | 59 (1955) | 2080 | 207 | 449 | 678 | 929 | 1380 | 2560 | 2670 | 4410 | 5980 |
| 2026-05-06 15:15 | 3.24 | 85 | 13300 (1984) | 59 (1955) | 2080 | 207 | 449 | 678 | 929 | 1380 | 2560 | 2670 | 4410 | 5980 |
| 2026-05-06 14:15 | 3.24 | 85 | 13300 (1984) | 59 (1955) | 2080 | 207 | 449 | 678 | 929 | 1380 | 2560 | 2670 | 4410 | 5980 |
| 2026-05-06 13:15 | 3.32 | 136 | 13300 (1984) | 59 (1955) | 2080 | 207 | 449 | 678 | 929 | 1380 | 2560 | 2670 | 4410 | 5980 |
| 2026-05-06 12:15 | 3.32 | 136 | 13300 (1984) | 59 (1955) | 2080 | 207 | 449 | 678 | 929 | 1380 | 2560 | 2670 | 4410 | 5980 |
| 2026-05-06 11:15 | 3.31 | 129 | 13300 (1984) | 59 (1955) | 2080 | 207 | 449 | 678 | 929 | 1380 | 2560 | 2670 | 4410 | 5980 |
| 2026-05-06 10:15 | 3.31 | 129 | 13300 (1984) | 59 (1955) | 2080 | 207 | 449 | 678 | 929 | 1380 | 2560 | 2670 | 4410 | 5980 |
| 2026-05-06 09:15 | 3.31 | 129 | 13300 (1984) | 59 (1955) | 2080 | 207 | 449 | 678 | 929 | 1380 | 2560 | 2670 | 4410 | 5980 |
| 2026-05-06 08:15 | 3.30 | 122 | 13300 (1984) | 59 (1955) | 2080 | 207 | 449 | 678 | 929 | 1380 | 2560 | 2670 | 4410 | 5980 |
| 2026-05-06 07:15 | 3.30 | 122 | 13300 (1984) | 59 (1955) | 2080 | 207 | 449 | 678 | 929 | 1380 | 2560 | 2670 | 4410 | 5980 |
| 2026-05-06 06:15 | 3.31 | 129 | 13300 (1984) | 59 (1955) | 2080 | 207 | 449 | 678 | 929 | 1380 | 2560 | 2670 | 4410 | 5980 |
| 2026-05-06 05:15 | 3.31 | 129 | 13300 (1984) | 59 (1955) | 2080 | 207 | 449 | 678 | 929 | 1380 | 2560 | 2670 | 4410 | 5980 |
| 2026-05-06 04:15 | 3.31 | 129 | 13300 (1984) | 59 (1955) | 2080 | 207 | 449 | 678 | 929 | 1380 | 2560 | 2670 | 4410 | 5980 |
| 2026-05-06 03:15 | 3.31 | 129 | 13300 (1984) | 59 (1955) | 2080 | 207 | 449 | 678 | 929 | 1380 | 2560 | 2670 | 4410 | 5980 |
| 2026-05-06 02:15 | 3.30 | 122 | 13300 (1984) | 59 (1955) | 2080 | 207 | 449 | 678 | 929 | 1380 | 2560 | 2670 | 4410 | 5980 |
| 2026-05-06 01:15 | 3.30 | 122 | 13300 (1984) | 59 (1955) | 2080 | 207 | 449 | 678 | 929 | 1380 | 2560 | 2670 | 4410 | 5980 |
| 2026-05-06 00:15 | 3.31 | 129 | 13300 (1984) | 59 (1955) | 2080 | 207 | 449 | 678 | 929 | 1380 | 2560 | 2670 | 4410 | 5980 |
| 2026-05-05 23:15 | 3.31 | 129 | 13300 (1984) | 59 (1955) | 2080 | 207 | 449 | 678 | 929 | 1380 | 2560 | 2670 | 4410 | 5980 |
| 2026-05-05 22:15 | 3.31 | 129 | 13400 (1942) | 87 (1955) | 2010 | 227 | 448 | 699 | 841 | 1310 | 2240 | 2690 | 4080 | 5850 |
| 2026-05-05 21:15 | 3.31 | 129 | 13400 (1942) | 87 (1955) | 2010 | 227 | 448 | 699 | 841 | 1310 | 2240 | 2690 | 4080 | 5850 |
| 2026-05-05 20:15 | 3.31 | 129 | 13400 (1942) | 87 (1955) | 2010 | 227 | 448 | 699 | 841 | 1310 | 2240 | 2690 | 4080 | 5850 |
| 2026-05-05 19:15 | 3.32 | 136 | 13400 (1942) | 87 (1955) | 2010 | 227 | 448 | 699 | 841 | 1310 | 2240 | 2690 | 4080 | 5850 |
| 2026-05-05 18:15 | 3.32 | 136 | 13400 (1942) | 87 (1955) | 2010 | 227 | 448 | 699 | 841 | 1310 | 2240 | 2690 | 4080 | 5850 |
| 2026-05-05 17:15 | 3.31 | 129 | 13400 (1942) | 87 (1955) | 2010 | 227 | 448 | 699 | 841 | 1310 | 2240 | 2690 | 4080 | 5850 |
| 2026-05-05 16:15 | 3.30 | 122 | 13400 (1942) | 87 (1955) | 2010 | 227 | 448 | 699 | 841 | 1310 | 2240 | 2690 | 4080 | 5850 |
| 2026-05-05 15:15 | 3.30 | 122 | 13400 (1942) | 87 (1955) | 2010 | 227 | 448 | 699 | 841 | 1310 | 2240 | 2690 | 4080 | 5850 |
| 2026-05-05 14:15 | 3.30 | 122 | 13400 (1942) | 87 (1955) | 2010 | 227 | 448 | 699 | 841 | 1310 | 2240 | 2690 | 4080 | 5850 |
| 2026-05-05 13:15 | 3.30 | 122 | 13400 (1942) | 87 (1955) | 2010 | 227 | 448 | 699 | 841 | 1310 | 2240 | 2690 | 4080 | 5850 |
| 2026-05-05 12:15 | 3.31 | 129 | 13400 (1942) | 87 (1955) | 2010 | 227 | 448 | 699 | 841 | 1310 | 2240 | 2690 | 4080 | 5850 |
| 2026-05-05 11:15 | 3.30 | 122 | 13400 (1942) | 87 (1955) | 2010 | 227 | 448 | 699 | 841 | 1310 | 2240 | 2690 | 4080 | 5850 |
| 2026-05-05 10:15 | 3.31 | 129 | 13400 (1942) | 87 (1955) | 2010 | 227 | 448 | 699 | 841 | 1310 | 2240 | 2690 | 4080 | 5850 |
| 2026-05-05 09:15 | 3.30 | 122 | 13400 (1942) | 87 (1955) | 2010 | 227 | 448 | 699 | 841 | 1310 | 2240 | 2690 | 4080 | 5850 |
| 2026-05-05 08:15 | 3.29 | 115 | 13400 (1942) | 87 (1955) | 2010 | 227 | 448 | 699 | 841 | 1310 | 2240 | 2690 | 4080 | 5850 |
| 2026-05-05 07:15 | 3.29 | 115 | 13400 (1942) | 87 (1955) | 2010 | 227 | 448 | 699 | 841 | 1310 | 2240 | 2690 | 4080 | 5850 |
| 2026-05-05 06:15 | 3.28 | 109 | 13400 (1942) | 87 (1955) | 2010 | 227 | 448 | 699 | 841 | 1310 | 2240 | 2690 | 4080 | 5850 |
| 2026-05-05 05:15 | 3.28 | 109 | 13400 (1942) | 87 (1955) | 2010 | 227 | 448 | 699 | 841 | 1310 | 2240 | 2690 | 4080 | 5850 |
| 2026-05-05 04:15 | 3.29 | 115 | 13400 (1942) | 87 (1955) | 2010 | 227 | 448 | 699 | 841 | 1310 | 2240 | 2690 | 4080 | 5850 |
| 2026-05-05 03:15 | 3.29 | 115 | 13400 (1942) | 87 (1955) | 2010 | 227 | 448 | 699 | 841 | 1310 | 2240 | 2690 | 4080 | 5850 |
| 2026-05-05 02:15 | 3.29 | 115 | 13400 (1942) | 87 (1955) | 2010 | 227 | 448 | 699 | 841 | 1310 | 2240 | 2690 | 4080 | 5850 |
| 2026-05-05 01:15 | 3.30 | 122 | 13400 (1942) | 87 (1955) | 2010 | 227 | 448 | 699 | 841 | 1310 | 2240 | 2690 | 4080 | 5850 |
| 2026-05-05 00:15 | 3.30 | 122 | 13400 (1942) | 87 (1955) | 2010 | 227 | 448 | 699 | 841 | 1310 | 2240 | 2690 | 4080 | 5850 |
| 2026-05-04 23:15 | 3.30 | 122 | 13400 (1942) | 87 (1955) | 2010 | 227 | 448 | 699 | 841 | 1310 | 2240 | 2690 | 4080 | 5850 |
| 2026-05-04 22:15 | 3.30 | 122 | 13400 (1984) | 104 (1955) | 1970 | 234 | 413 | 712 | 831 | 1450 | 2160 | 2480 | 3900 | 5850 |
| 2026-05-04 21:15 | 3.31 | 129 | 13400 (1984) | 104 (1955) | 1970 | 234 | 413 | 712 | 831 | 1450 | 2160 | 2480 | 3900 | 5850 |
| 2026-05-04 20:15 | 3.31 | 129 | 13400 (1984) | 104 (1955) | 1970 | 234 | 413 | 712 | 831 | 1450 | 2160 | 2480 | 3900 | 5850 |
| 2026-05-04 19:15 | 3.31 | 129 | 13400 (1984) | 104 (1955) | 1970 | 234 | 413 | 712 | 831 | 1450 | 2160 | 2480 | 3900 | 5850 |
| 2026-05-04 18:15 | 3.31 | 129 | 13400 (1984) | 104 (1955) | 1970 | 234 | 413 | 712 | 831 | 1450 | 2160 | 2480 | 3900 | 5850 |
| 2026-05-04 17:15 | 3.32 | 136 | 13400 (1984) | 104 (1955) | 1970 | 234 | 413 | 712 | 831 | 1450 | 2160 | 2480 | 3900 | 5850 |
| 2026-05-04 16:15 | 3.32 | 136 | 13400 (1984) | 104 (1955) | 1970 | 234 | 413 | 712 | 831 | 1450 | 2160 | 2480 | 3900 | 5850 |
| 2026-05-04 15:15 | 3.32 | 136 | 13400 (1984) | 104 (1955) | 1970 | 234 | 413 | 712 | 831 | 1450 | 2160 | 2480 | 3900 | 5850 |
| 2026-05-04 14:15 | 3.33 | 143 | 13400 (1984) | 104 (1955) | 1970 | 234 | 413 | 712 | 831 | 1450 | 2160 | 2480 | 3900 | 5850 |
| 2026-05-04 13:15 | 3.32 | 136 | 13400 (1984) | 104 (1955) | 1970 | 234 | 413 | 712 | 831 | 1450 | 2160 | 2480 | 3900 | 5850 |
| 2026-05-04 12:15 | 3.33 | 143 | 13400 (1984) | 104 (1955) | 1970 | 234 | 413 | 712 | 831 | 1450 | 2160 | 2480 | 3900 | 5850 |
| 2026-05-04 11:15 | 3.33 | 143 | 13400 (1984) | 104 (1955) | 1970 | 234 | 413 | 712 | 831 | 1450 | 2160 | 2480 | 3900 | 5850 |
| 2026-05-04 10:15 | 3.34 | 151 | 13400 (1984) | 104 (1955) | 1970 | 234 | 413 | 712 | 831 | 1450 | 2160 | 2480 | 3900 | 5850 |
| 2026-05-04 09:15 | 3.35 | 159 | 13400 (1984) | 104 (1955) | 1970 | 234 | 413 | 712 | 831 | 1450 | 2160 | 2480 | 3900 | 5850 |
| 2026-05-04 08:15 | 3.35 | 159 | 13400 (1984) | 104 (1955) | 1970 | 234 | 413 | 712 | 831 | 1450 | 2160 | 2480 | 3900 | 5850 |
| 2026-05-04 07:15 | 3.33 | 143 | 13400 (1984) | 104 (1955) | 1970 | 234 | 413 | 712 | 831 | 1450 | 2160 | 2480 | 3900 | 5850 |
| 2026-05-04 06:15 | 3.33 | 143 | 13400 (1984) | 104 (1955) | 1970 | 234 | 413 | 712 | 831 | 1450 | 2160 | 2480 | 3900 | 5850 |
| 2026-05-04 05:15 | 3.34 | 151 | 13400 (1984) | 104 (1955) | 1970 | 234 | 413 | 712 | 831 | 1450 | 2160 | 2480 | 3900 | 5850 |
| 2026-05-04 04:15 | 3.33 | 143 | 13400 (1984) | 104 (1955) | 1970 | 234 | 413 | 712 | 831 | 1450 | 2160 | 2480 | 3900 | 5850 |
| 2026-05-04 03:15 | 3.34 | 151 | 13400 (1984) | 104 (1955) | 1970 | 234 | 413 | 712 | 831 | 1450 | 2160 | 2480 | 3900 | 5850 |
| 2026-05-04 02:15 | 3.34 | 151 | 13400 (1984) | 104 (1955) | 1970 | 234 | 413 | 712 | 831 | 1450 | 2160 | 2480 | 3900 | 5850 |
| 2026-05-04 01:15 | 3.34 | 151 | 13400 (1984) | 104 (1955) | 1970 | 234 | 413 | 712 | 831 | 1450 | 2160 | 2480 | 3900 | 5850 |
| 2026-05-04 00:15 | 3.34 | 151 | 13400 (1984) | 104 (1955) | 1970 | 234 | 413 | 712 | 831 | 1450 | 2160 | 2480 | 3900 | 5850 |
| 2026-05-03 23:15 | 3.34 | 151 | 13400 (1984) | 104 (1955) | 1970 | 234 | 413 | 712 | 831 | 1450 | 2160 | 2480 | 3900 | 5850 |
| 2026-05-03 22:15 | 3.34 | 151 | 13500 (1984) | 121 (2023) | 1890 | 252 | 410 | 695 | 847 | 1410 | 2310 | 2430 | 3500 | 5730 |
| 2026-05-03 21:15 | 3.34 | 151 | 13500 (1984) | 121 (2023) | 1890 | 252 | 410 | 695 | 847 | 1410 | 2310 | 2430 | 3500 | 5730 |
| 2026-05-03 20:15 | 3.35 | 159 | 13500 (1984) | 121 (2023) | 1890 | 252 | 410 | 695 | 847 | 1410 | 2310 | 2430 | 3500 | 5730 |
| 2026-05-03 19:15 | 3.35 | 159 | 13500 (1984) | 121 (2023) | 1890 | 252 | 410 | 695 | 847 | 1410 | 2310 | 2430 | 3500 | 5730 |
| 2026-05-03 18:15 | 3.35 | 159 | 13500 (1984) | 121 (2023) | 1890 | 252 | 410 | 695 | 847 | 1410 | 2310 | 2430 | 3500 | 5730 |
| 2026-05-03 17:15 | 3.36 | 167 | 13500 (1984) | 121 (2023) | 1890 | 252 | 410 | 695 | 847 | 1410 | 2310 | 2430 | 3500 | 5730 |
| 2026-05-03 16:15 | 3.36 | 167 | 13500 (1984) | 121 (2023) | 1890 | 252 | 410 | 695 | 847 | 1410 | 2310 | 2430 | 3500 | 5730 |
| 2026-05-03 15:15 | 3.35 | 159 | 13500 (1984) | 121 (2023) | 1890 | 252 | 410 | 695 | 847 | 1410 | 2310 | 2430 | 3500 | 5730 |
| 2026-05-03 14:15 | 3.35 | 159 | 13500 (1984) | 121 (2023) | 1890 | 252 | 410 | 695 | 847 | 1410 | 2310 | 2430 | 3500 | 5730 |
| 2026-05-03 13:15 | 3.35 | 159 | 13500 (1984) | 121 (2023) | 1890 | 252 | 410 | 695 | 847 | 1410 | 2310 | 2430 | 3500 | 5730 |
| 2026-05-03 12:15 | 3.36 | 167 | 13500 (1984) | 121 (2023) | 1890 | 252 | 410 | 695 | 847 | 1410 | 2310 | 2430 | 3500 | 5730 |
| 2026-05-03 11:15 | 3.36 | 167 | 13500 (1984) | 121 (2023) | 1890 | 252 | 410 | 695 | 847 | 1410 | 2310 | 2430 | 3500 | 5730 |
| 2026-05-03 10:15 | 3.36 | 167 | 13500 (1984) | 121 (2023) | 1890 | 252 | 410 | 695 | 847 | 1410 | 2310 | 2430 | 3500 | 5730 |
| 2026-05-03 09:15 | 3.36 | 167 | 13500 (1984) | 121 (2023) | 1890 | 252 | 410 | 695 | 847 | 1410 | 2310 | 2430 | 3500 | 5730 |
| 2026-05-03 08:15 | 3.36 | 167 | 13500 (1984) | 121 (2023) | 1890 | 252 | 410 | 695 | 847 | 1410 | 2310 | 2430 | 3500 | 5730 |
| 2026-05-03 07:15 | 3.35 | 159 | 13500 (1984) | 121 (2023) | 1890 | 252 | 410 | 695 | 847 | 1410 | 2310 | 2430 | 3500 | 5730 |
| 2026-05-03 06:15 | 3.35 | 159 | 13500 (1984) | 121 (2023) | 1890 | 252 | 410 | 695 | 847 | 1410 | 2310 | 2430 | 3500 | 5730 |
| 2026-05-03 05:15 | 3.35 | 159 | 13500 (1984) | 121 (2023) | 1890 | 252 | 410 | 695 | 847 | 1410 | 2310 | 2430 | 3500 | 5730 |
| 2026-05-03 04:15 | 3.35 | 159 | 13500 (1984) | 121 (2023) | 1890 | 252 | 410 | 695 | 847 | 1410 | 2310 | 2430 | 3500 | 5730 |
| 2026-05-03 03:15 | 3.36 | 167 | 13500 (1984) | 121 (2023) | 1890 | 252 | 410 | 695 | 847 | 1410 | 2310 | 2430 | 3500 | 5730 |
| 2026-05-03 02:15 | 3.36 | 167 | 13500 (1984) | 121 (2023) | 1890 | 252 | 410 | 695 | 847 | 1410 | 2310 | 2430 | 3500 | 5730 |
| 2026-05-03 01:15 | 3.36 | 167 | 13500 (1984) | 121 (2023) | 1890 | 252 | 410 | 695 | 847 | 1410 | 2310 | 2430 | 3500 | 5730 |
| 2026-05-03 00:15 | 3.36 | 167 | 13500 (1984) | 121 (2023) | 1890 | 252 | 410 | 695 | 847 | 1410 | 2310 | 2430 | 3500 | 5730 |
| 2026-05-02 23:15 | 3.36 | 167 | 13500 (1984) | 121 (2023) | 1890 | 252 | 410 | 695 | 847 | 1410 | 2310 | 2430 | 3500 | 5730 |
A total of 181 rows are displayed for years 1942 through 2025.